sensor_id;sensor_type;location;lat;lon;timestamp;temperature;humidity
21108;DHT22;10712;52.944;9.098;2022-09-29T00:00:52;8.30;92.30
21108;DHT22;10712;52.944;9.098;2022-09-29T00:03:19;8.30;92.30
21108;DHT22;10712;52.944;9.098;2022-09-29T00:05:50;8.30;92.30
21108;DHT22;10712;52.944;9.098;2022-09-29T00:08:18;8.30;92.20
21108;DHT22;10712;52.944;9.098;2022-09-29T00:10:45;8.30;92.10
21108;DHT22;10712;52.944;9.098;2022-09-29T00:13:12;8.20;92.00
21108;DHT22;10712;52.944;9.098;2022-09-29T00:15:39;8.20;92.10
21108;DHT22;10712;52.944;9.098;2022-09-29T00:18:06;8.20;92.00
21108;DHT22;10712;52.944;9.098;2022-09-29T00:20:33;8.10;91.90
21108;DHT22;10712;52.944;9.098;2022-09-29T00:22:59;8.10;91.80
21108;DHT22;10712;52.944;9.098;2022-09-29T00:25:25;8.10;91.80
21108;DHT22;10712;52.944;9.098;2022-09-29T00:27:51;8.00;91.70
21108;DHT22;10712;52.944;9.098;2022-09-29T00:30:17;8.00;91.70
21108;DHT22;10712;52.944;9.098;2022-09-29T00:32:43;8.00;91.60
21108;DHT22;10712;52.944;9.098;2022-09-29T00:35:09;7.90;91.80
21108;DHT22;10712;52.944;9.098;2022-09-29T00:37:36;7.90;91.90
21108;DHT22;10712;52.944;9.098;2022-09-29T00:40:03;7.90;91.90
21108;DHT22;10712;52.944;9.098;2022-09-29T00:42:29;7.90;92.00
21108;DHT22;10712;52.944;9.098;2022-09-29T00:45:22;7.90;91.90
21108;DHT22;10712;52.944;9.098;2022-09-29T00:48:04;7.90;91.80
21108;DHT22;10712;52.944;9.098;2022-09-29T00:50:47;7.90;91.80
21108;DHT22;10712;52.944;9.098;2022-09-29T00:53:18;7.80;91.70
21108;DHT22;10712;52.944;9.098;2022-09-29T00:55:55;7.80;91.60
21108;DHT22;10712;52.944;9.098;2022-09-29T00:58:41;7.80;91.50
21108;DHT22;10712;52.944;9.098;2022-09-29T01:01:25;7.70;91.40
21108;DHT22;10712;52.944;9.098;2022-09-29T01:03:58;7.70;91.40
21108;DHT22;10712;52.944;9.098;2022-09-29T01:06:36;7.70;91.50
21108;DHT22;10712;52.944;9.098;2022-09-29T01:09:09;7.70;91.60
21108;DHT22;10712;52.944;9.098;2022-09-29T01:11:39;7.60;91.70
21108;DHT22;10712;52.944;9.098;2022-09-29T01:14:07;7.60;91.70
21108;DHT22;10712;52.944;9.098;2022-09-29T01:16:36;7.60;91.80
21108;DHT22;10712;52.944;9.098;2022-09-29T01:19:11;7.60;91.80
21108;DHT22;10712;52.944;9.098;2022-09-29T01:22:10;7.60;91.80
21108;DHT22;10712;52.944;9.098;2022-09-29T01:24:50;7.50;91.90
21108;DHT22;10712;52.944;9.098;2022-09-29T01:27:48;7.50;91.90
21108;DHT22;10712;52.944;9.098;2022-09-29T01:31:01;7.40;91.90
21108;DHT22;10712;52.944;9.098;2022-09-29T01:34:12;7.40;92.20
21108;DHT22;10712;52.944;9.098;2022-09-29T01:40:05;7.40;91.90
21108;DHT22;10712;52.944;9.098;2022-09-29T01:45:43;7.30;91.50
21108;DHT22;10712;52.944;9.098;2022-09-29T01:48:21;7.30;91.70
21108;DHT22;10712;52.944;9.098;2022-09-29T01:50:54;7.30;91.60
21108;DHT22;10712;52.944;9.098;2022-09-29T01:53:34;7.30;91.70
21108;DHT22;10712;52.944;9.098;2022-09-29T01:56:08;7.20;91.50
21108;DHT22;10712;52.944;9.098;2022-09-29T01:58:55;7.20;91.60
21108;DHT22;10712;52.944;9.098;2022-09-29T02:01:33;7.20;91.50
21108;DHT22;10712;52.944;9.098;2022-09-29T02:04:04;7.20;91.40
21108;DHT22;10712;52.944;9.098;2022-09-29T02:06:44;7.20;91.40
21108;DHT22;10712;52.944;9.098;2022-09-29T02:09:22;7.10;91.30
21108;DHT22;10712;52.944;9.098;2022-09-29T02:11:53;7.10;91.00
21108;DHT22;10712;52.944;9.098;2022-09-29T02:14:25;7.10;90.80
21108;DHT22;10712;52.944;9.098;2022-09-29T02:17:21;7.00;90.90
21108;DHT22;10712;52.944;9.098;2022-09-29T02:19:50;7.00;91.10
21108;DHT22;10712;52.944;9.098;2022-09-29T02:22:17;7.00;91.10
21108;DHT22;10712;52.944;9.098;2022-09-29T02:24:44;7.00;91.10
21108;DHT22;10712;52.944;9.098;2022-09-29T02:27:11;6.90;90.80
21108;DHT22;10712;52.944;9.098;2022-09-29T02:29:37;6.90;90.70
21108;DHT22;10712;52.944;9.098;2022-09-29T02:32:05;6.90;90.80
21108;DHT22;10712;52.944;9.098;2022-09-29T02:34:37;6.80;90.90
21108;DHT22;10712;52.944;9.098;2022-09-29T02:55:53;6.70;90.30
21108;DHT22;10712;52.944;9.098;2022-09-29T02:58:38;6.70;90.30
21108;DHT22;10712;52.944;9.098;2022-09-29T03:01:06;6.70;90.10
21108;DHT22;10712;52.944;9.098;2022-09-29T03:03:33;6.70;90.10
21108;DHT22;10712;52.944;9.098;2022-09-29T03:05:58;6.70;90.20
21108;DHT22;10712;52.944;9.098;2022-09-29T03:08:24;6.70;90.10
21108;DHT22;10712;52.944;9.098;2022-09-29T03:10:50;6.60;89.70
21108;DHT22;10712;52.944;9.098;2022-09-29T03:13:16;6.60;89.70
21108;DHT22;10712;52.944;9.098;2022-09-29T03:15:41;6.60;89.70
21108;DHT22;10712;52.944;9.098;2022-09-29T03:18:08;6.50;89.80
21108;DHT22;10712;52.944;9.098;2022-09-29T03:20:34;6.60;89.70
21108;DHT22;10712;52.944;9.098;2022-09-29T03:23:00;6.50;89.50
21108;DHT22;10712;52.944;9.098;2022-09-29T03:25:25;6.50;89.40
21108;DHT22;10712;52.944;9.098;2022-09-29T03:27:51;6.50;89.50
21108;DHT22;10712;52.944;9.098;2022-09-29T03:30:18;6.50;89.50
21108;DHT22;10712;52.944;9.098;2022-09-29T03:32:44;6.40;89.40
21108;DHT22;10712;52.944;9.098;2022-09-29T03:35:10;6.40;89.20
21108;DHT22;10712;52.944;9.098;2022-09-29T03:37:36;6.30;89.30
21108;DHT22;10712;52.944;9.098;2022-09-29T03:40:04;6.30;89.40
21108;DHT22;10712;52.944;9.098;2022-09-29T03:42:30;6.30;89.60
21108;DHT22;10712;52.944;9.098;2022-09-29T03:44:57;6.30;89.60
21108;DHT22;10712;52.944;9.098;2022-09-29T03:47:23;6.30;89.70
21108;DHT22;10712;52.944;9.098;2022-09-29T03:49:49;6.30;89.70
21108;DHT22;10712;52.944;9.098;2022-09-29T03:52:15;6.30;89.60
21108;DHT22;10712;52.944;9.098;2022-09-29T03:54:41;6.30;89.60
21108;DHT22;10712;52.944;9.098;2022-09-29T03:57:07;6.30;89.50
21108;DHT22;10712;52.944;9.098;2022-09-29T03:59:33;6.30;89.30
21108;DHT22;10712;52.944;9.098;2022-09-29T04:01:58;6.30;89.30
21108;DHT22;10712;52.944;9.098;2022-09-29T04:04:24;6.30;89.20
21108;DHT22;10712;52.944;9.098;2022-09-29T04:06:50;6.30;89.10
21108;DHT22;10712;52.944;9.098;2022-09-29T04:09:16;6.20;89.10
21108;DHT22;10712;52.944;9.098;2022-09-29T04:11:41;6.20;89.20
21108;DHT22;10712;52.944;9.098;2022-09-29T04:14:07;6.20;89.20
21108;DHT22;10712;52.944;9.098;2022-09-29T04:16:33;6.20;89.40
21108;DHT22;10712;52.944;9.098;2022-09-29T04:18:59;6.20;89.40
21108;DHT22;10712;52.944;9.098;2022-09-29T04:21:24;6.20;89.30
21108;DHT22;10712;52.944;9.098;2022-09-29T04:23:50;6.20;89.10
21108;DHT22;10712;52.944;9.098;2022-09-29T04:26:16;6.20;89.00
21108;DHT22;10712;52.944;9.098;2022-09-29T04:28:45;6.20;89.00
21108;DHT22;10712;52.944;9.098;2022-09-29T04:31:11;6.20;89.10
21108;DHT22;10712;52.944;9.098;2022-09-29T04:33:37;6.10;89.10
21108;DHT22;10712;52.944;9.098;2022-09-29T04:36:04;6.20;89.10
21108;DHT22;10712;52.944;9.098;2022-09-29T04:38:30;6.20;89.00
21108;DHT22;10712;52.944;9.098;2022-09-29T04:40:56;6.10;89.00
21108;DHT22;10712;52.944;9.098;2022-09-29T04:43:22;6.10;88.70
21108;DHT22;10712;52.944;9.098;2022-09-29T04:45:48;6.10;88.80
21108;DHT22;10712;52.944;9.098;2022-09-29T04:48:14;6.10;88.80
21108;DHT22;10712;52.944;9.098;2022-09-29T04:50:40;6.10;88.80
21108;DHT22;10712;52.944;9.098;2022-09-29T04:53:08;6.00;89.00
21108;DHT22;10712;52.944;9.098;2022-09-29T04:55:38;6.00;89.00
21108;DHT22;10712;52.944;9.098;2022-09-29T04:58:03;6.00;89.10
21108;DHT22;10712;52.944;9.098;2022-09-29T05:00:29;6.00;89.10
21108;DHT22;10712;52.944;9.098;2022-09-29T05:02:57;6.10;89.10
21108;DHT22;10712;52.944;9.098;2022-09-29T05:05:24;6.10;89.10
21108;DHT22;10712;52.944;9.098;2022-09-29T05:07:50;6.10;89.10
21108;DHT22;10712;52.944;9.098;2022-09-29T05:10:15;6.10;89.20
21108;DHT22;10712;52.944;9.098;2022-09-29T05:12:47;6.10;89.20
21108;DHT22;10712;52.944;9.098;2022-09-29T05:15:15;6.10;89.10
21108;DHT22;10712;52.944;9.098;2022-09-29T05:17:42;6.10;89.10
21108;DHT22;10712;52.944;9.098;2022-09-29T05:20:08;6.00;89.00
21108;DHT22;10712;52.944;9.098;2022-09-29T05:22:34;6.00;89.10
21108;DHT22;10712;52.944;9.098;2022-09-29T05:25:00;6.00;89.30
21108;DHT22;10712;52.944;9.098;2022-09-29T05:27:26;6.00;89.30
21108;DHT22;10712;52.944;9.098;2022-09-29T05:29:51;5.90;89.40
21108;DHT22;10712;52.944;9.098;2022-09-29T05:32:17;5.90;89.60
21108;DHT22;10712;52.944;9.098;2022-09-29T05:34:43;5.90;89.80
21108;DHT22;10712;52.944;9.098;2022-09-29T05:37:09;5.90;89.80
21108;DHT22;10712;52.944;9.098;2022-09-29T05:39:36;5.90;89.80
21108;DHT22;10712;52.944;9.098;2022-09-29T05:42:05;5.80;89.90
21108;DHT22;10712;52.944;9.098;2022-09-29T05:44:35;5.80;90.00
21108;DHT22;10712;52.944;9.098;2022-09-29T05:47:01;5.90;90.10
21108;DHT22;10712;52.944;9.098;2022-09-29T05:49:27;5.90;90.10
21108;DHT22;10712;52.944;9.098;2022-09-29T05:51:55;5.90;90.20
21108;DHT22;10712;52.944;9.098;2022-09-29T05:54:21;5.80;90.10
21108;DHT22;10712;52.944;9.098;2022-09-29T05:56:48;5.80;90.10
21108;DHT22;10712;52.944;9.098;2022-09-29T05:59:14;5.80;90.00
21108;DHT22;10712;52.944;9.098;2022-09-29T06:01:40;5.80;90.20
21108;DHT22;10712;52.944;9.098;2022-09-29T06:04:06;5.80;90.40
21108;DHT22;10712;52.944;9.098;2022-09-29T06:06:31;5.80;90.50
21108;DHT22;10712;52.944;9.098;2022-09-29T06:08:58;5.90;90.40
21108;DHT22;10712;52.944;9.098;2022-09-29T06:11:26;5.90;90.40
21108;DHT22;10712;52.944;9.098;2022-09-29T06:13:56;5.90;90.40
21108;DHT22;10712;52.944;9.098;2022-09-29T06:16:25;5.90;90.40
21108;DHT22;10712;52.944;9.098;2022-09-29T06:18:53;5.90;90.40
21108;DHT22;10712;52.944;9.098;2022-09-29T06:21:22;5.90;90.50
21108;DHT22;10712;52.944;9.098;2022-09-29T06:23:49;6.00;90.70
21108;DHT22;10712;52.944;9.098;2022-09-29T06:26:18;6.00;90.70
21108;DHT22;10712;52.944;9.098;2022-09-29T06:28:45;6.00;90.70
21108;DHT22;10712;52.944;9.098;2022-09-29T06:31:13;6.00;90.90
21108;DHT22;10712;52.944;9.098;2022-09-29T06:33:41;6.10;91.10
21108;DHT22;10712;52.944;9.098;2022-09-29T06:36:24;6.10;91.10
21108;DHT22;10712;52.944;9.098;2022-09-29T06:39:18;6.10;91.20
21108;DHT22;10712;52.944;9.098;2022-09-29T06:41:44;6.20;91.40
21108;DHT22;10712;52.944;9.098;2022-09-29T06:44:16;6.20;91.60
21108;DHT22;10712;52.944;9.098;2022-09-29T06:46:42;6.20;91.70
21108;DHT22;10712;52.944;9.098;2022-09-29T06:49:10;6.30;91.80
21108;DHT22;10712;52.944;9.098;2022-09-29T06:51:37;6.30;92.10
21108;DHT22;10712;52.944;9.098;2022-09-29T06:54:03;6.40;92.10
21108;DHT22;10712;52.944;9.098;2022-09-29T06:56:29;6.40;92.20
21108;DHT22;10712;52.944;9.098;2022-09-29T06:58:55;6.50;92.30
21108;DHT22;10712;52.944;9.098;2022-09-29T07:01:21;6.50;92.60
21108;DHT22;10712;52.944;9.098;2022-09-29T07:03:46;6.50;92.60
21108;DHT22;10712;52.944;9.098;2022-09-29T07:06:12;6.60;92.80
21108;DHT22;10712;52.944;9.098;2022-09-29T07:08:38;6.60;92.80
21108;DHT22;10712;52.944;9.098;2022-09-29T07:11:08;6.70;93.00
21108;DHT22;10712;52.944;9.098;2022-09-29T07:13:35;6.80;93.20
21108;DHT22;10712;52.944;9.098;2022-09-29T07:16:10;6.80;93.40
21108;DHT22;10712;52.944;9.098;2022-09-29T07:18:39;6.90;93.50
21108;DHT22;10712;52.944;9.098;2022-09-29T07:21:08;6.90;93.60
21108;DHT22;10712;52.944;9.098;2022-09-29T07:23:37;7.00;93.80
21108;DHT22;10712;52.944;9.098;2022-09-29T07:26:04;7.00;93.80
21108;DHT22;10712;52.944;9.098;2022-09-29T07:28:31;7.10;94.00
21108;DHT22;10712;52.944;9.098;2022-09-29T07:30:58;7.10;94.10
21108;DHT22;10712;52.944;9.098;2022-09-29T07:33:25;7.20;94.20
21108;DHT22;10712;52.944;9.098;2022-09-29T07:35:52;7.20;94.30
21108;DHT22;10712;52.944;9.098;2022-09-29T07:38:19;7.30;94.30
21108;DHT22;10712;52.944;9.098;2022-09-29T07:40:45;7.40;94.30
21108;DHT22;10712;52.944;9.098;2022-09-29T07:43:11;7.40;94.30
21108;DHT22;10712;52.944;9.098;2022-09-29T07:45:37;7.50;94.30
21108;DHT22;10712;52.944;9.098;2022-09-29T07:48:03;7.50;94.30
21108;DHT22;10712;52.944;9.098;2022-09-29T07:50:29;7.60;94.30
21108;DHT22;10712;52.944;9.098;2022-09-29T07:52:56;7.60;94.30
21108;DHT22;10712;52.944;9.098;2022-09-29T07:55:21;7.70;94.30
21108;DHT22;10712;52.944;9.098;2022-09-29T07:57:48;7.80;94.30
21108;DHT22;10712;52.944;9.098;2022-09-29T08:00:15;7.80;94.30
21108;DHT22;10712;52.944;9.098;2022-09-29T08:02:42;7.90;94.30
21108;DHT22;10712;52.944;9.098;2022-09-29T08:05:08;7.90;94.30
21108;DHT22;10712;52.944;9.098;2022-09-29T08:07:34;8.00;94.30
21108;DHT22;10712;52.944;9.098;2022-09-29T08:10:00;8.00;94.30
21108;DHT22;10712;52.944;9.098;2022-09-29T08:12:26;8.10;94.30
21108;DHT22;10712;52.944;9.098;2022-09-29T08:14:52;8.20;94.30
21108;DHT22;10712;52.944;9.098;2022-09-29T08:17:17;8.20;94.30
21108;DHT22;10712;52.944;9.098;2022-09-29T08:19:43;8.30;94.30
21108;DHT22;10712;52.944;9.098;2022-09-29T08:22:09;8.40;94.30
21108;DHT22;10712;52.944;9.098;2022-09-29T08:24:35;8.50;94.30
21108;DHT22;10712;52.944;9.098;2022-09-29T08:27:05;8.60;94.30
21108;DHT22;10712;52.944;9.098;2022-09-29T08:29:32;8.70;94.30
21108;DHT22;10712;52.944;9.098;2022-09-29T08:31:58;8.80;94.30
21108;DHT22;10712;52.944;9.098;2022-09-29T08:34:24;8.80;94.30
21108;DHT22;10712;52.944;9.098;2022-09-29T08:36:50;8.90;94.30
21108;DHT22;10712;52.944;9.098;2022-09-29T08:39:16;9.00;94.30
21108;DHT22;10712;52.944;9.098;2022-09-29T08:44:47;9.20;94.30
21108;DHT22;10712;52.944;9.098;2022-09-29T08:47:36;9.30;94.30
21108;DHT22;10712;52.944;9.098;2022-09-29T08:50:32;9.30;94.30
21108;DHT22;10712;52.944;9.098;2022-09-29T08:53:07;9.40;94.30
21108;DHT22;10712;52.944;9.098;2022-09-29T08:55:51;9.50;94.30
21108;DHT22;10712;52.944;9.098;2022-09-29T08:58:21;9.50;94.30
21108;DHT22;10712;52.944;9.098;2022-09-29T09:16:24;10.00;94.30
21108;DHT22;10712;52.944;9.098;2022-09-29T09:19:08;10.00;94.30
21108;DHT22;10712;52.944;9.098;2022-09-29T09:21:58;10.10;94.30
21108;DHT22;10712;52.944;9.098;2022-09-29T09:24:46;10.20;94.30
21108;DHT22;10712;52.944;9.098;2022-09-29T09:27:21;10.30;94.30
21108;DHT22;10712;52.944;9.098;2022-09-29T09:30:21;10.40;94.00
21108;DHT22;10712;52.944;9.098;2022-09-29T09:32:56;10.50;93.90
21108;DHT22;10712;52.944;9.098;2022-09-29T09:36:32;10.60;93.60
21108;DHT22;10712;52.944;9.098;2022-09-29T09:41:28;10.90;92.30
21108;DHT22;10712;52.944;9.098;2022-09-29T09:44:05;10.90;92.30
21108;DHT22;10712;52.944;9.098;2022-09-29T09:46:53;11.00;92.20
21108;DHT22;10712;52.944;9.098;2022-09-29T09:49:26;11.10;91.90
21108;DHT22;10712;52.944;9.098;2022-09-29T09:52:10;11.20;91.40
21108;DHT22;10712;52.944;9.098;2022-09-29T09:54:45;11.30;91.00
21108;DHT22;10712;52.944;9.098;2022-09-29T10:00:19;11.50;90.60
21108;DHT22;10712;52.944;9.098;2022-09-29T10:02:55;11.60;90.40
21108;DHT22;10712;52.944;9.098;2022-09-29T10:05:25;11.60;89.40
21108;DHT22;10712;52.944;9.098;2022-09-29T10:07:57;11.70;89.60
21108;DHT22;10712;52.944;9.098;2022-09-29T10:10:25;11.80;89.60
21108;DHT22;10712;52.944;9.098;2022-09-29T10:13:03;11.90;89.10
21108;DHT22;10712;52.944;9.098;2022-09-29T10:15:42;12.00;87.70
21108;DHT22;10712;52.944;9.098;2022-09-29T10:18:38;12.00;86.70
21108;DHT22;10712;52.944;9.098;2022-09-29T10:21:43;12.10;87.40
21108;DHT22;10712;52.944;9.098;2022-09-29T10:24:19;12.10;87.30
21108;DHT22;10712;52.944;9.098;2022-09-29T10:26:54;12.10;86.00
21108;DHT22;10712;52.944;9.098;2022-09-29T10:29:41;12.10;86.20
21108;DHT22;10712;52.944;9.098;2022-09-29T10:32:33;12.10;86.30
21108;DHT22;10712;52.944;9.098;2022-09-29T10:35:21;12.10;86.10
21108;DHT22;10712;52.944;9.098;2022-09-29T10:38:05;12.00;86.30
21108;DHT22;10712;52.944;9.098;2022-09-29T10:40:56;12.00;86.10
21108;DHT22;10712;52.944;9.098;2022-09-29T10:43:26;12.00;86.40
21108;DHT22;10712;52.944;9.098;2022-09-29T10:45:59;12.10;85.80
21108;DHT22;10712;52.944;9.098;2022-09-29T10:48:26;12.10;85.70
21108;DHT22;10712;52.944;9.098;2022-09-29T10:50:58;12.20;85.50
21108;DHT22;10712;52.944;9.098;2022-09-29T10:53:37;12.40;85.50
21108;DHT22;10712;52.944;9.098;2022-09-29T10:56:22;12.60;84.90
21108;DHT22;10712;52.944;9.098;2022-09-29T10:58:59;12.60;84.40
21108;DHT22;10712;52.944;9.098;2022-09-29T11:01:29;12.70;84.10
21108;DHT22;10712;52.944;9.098;2022-09-29T11:04:06;12.70;84.10
21108;DHT22;10712;52.944;9.098;2022-09-29T11:06:43;12.80;83.50
21108;DHT22;10712;52.944;9.098;2022-09-29T11:17:00;13.10;82.80
21108;DHT22;10712;52.944;9.098;2022-09-29T11:19:42;13.20;83.00
21108;DHT22;10712;52.944;9.098;2022-09-29T11:25:06;13.50;81.80
21108;DHT22;10712;52.944;9.098;2022-09-29T11:30:52;13.70;81.40
21108;DHT22;10712;52.944;9.098;2022-09-29T11:33:35;13.70;80.40
21108;DHT22;10712;52.944;9.098;2022-09-29T11:36:49;13.70;80.70
21108;DHT22;10712;52.944;9.098;2022-09-29T11:39:44;13.60;79.90
21108;DHT22;10712;52.944;9.098;2022-09-29T11:45:20;13.50;80.50
21108;DHT22;10712;52.944;9.098;2022-09-29T11:51:15;13.50;79.90
21108;DHT22;10712;52.944;9.098;2022-09-29T11:53:49;13.40;79.60
21108;DHT22;10712;52.944;9.098;2022-09-29T12:02:33;13.40;80.00
21108;DHT22;10712;52.944;9.098;2022-09-29T12:05:23;13.40;79.80
21108;DHT22;10712;52.944;9.098;2022-09-29T12:13:30;13.40;78.90
21108;DHT22;10712;52.944;9.098;2022-09-29T12:16:30;13.40;78.40
21108;DHT22;10712;52.944;9.098;2022-09-29T12:19:15;13.50;78.40
21108;DHT22;10712;52.944;9.098;2022-09-29T12:21:50;13.50;78.70
21108;DHT22;10712;52.944;9.098;2022-09-29T12:26:59;13.60;78.40
21108;DHT22;10712;52.944;9.098;2022-09-29T12:29:37;13.60;78.70
21108;DHT22;10712;52.944;9.098;2022-09-29T12:32:20;13.70;78.50
21108;DHT22;10712;52.944;9.098;2022-09-29T12:35:14;13.70;78.60
21108;DHT22;10712;52.944;9.098;2022-09-29T12:38:00;13.80;78.50
21108;DHT22;10712;52.944;9.098;2022-09-29T12:41:01;13.90;78.00
21108;DHT22;10712;52.944;9.098;2022-09-29T12:43:58;14.00;76.60
21108;DHT22;10712;52.944;9.098;2022-09-29T12:46:45;14.00;75.60
21108;DHT22;10712;52.944;9.098;2022-09-29T12:51:52;13.90;75.70
21108;DHT22;10712;52.944;9.098;2022-09-29T12:54:23;13.90;75.70
21108;DHT22;10712;52.944;9.098;2022-09-29T12:57:00;13.90;75.80
21108;DHT22;10712;52.944;9.098;2022-09-29T13:00:02;13.80;76.00
21108;DHT22;10712;52.944;9.098;2022-09-29T13:17:18;14.20;75.30
21108;DHT22;10712;52.944;9.098;2022-09-29T13:20:01;14.30;74.50
21108;DHT22;10712;52.944;9.098;2022-09-29T13:22:53;14.30;73.70
21108;DHT22;10712;52.944;9.098;2022-09-29T13:28:32;14.30;73.50
21108;DHT22;10712;52.944;9.098;2022-09-29T13:31:09;14.30;73.70
21108;DHT22;10712;52.944;9.098;2022-09-29T13:33:39;14.30;74.10
21108;DHT22;10712;52.944;9.098;2022-09-29T13:36:06;14.30;73.90
21108;DHT22;10712;52.944;9.098;2022-09-29T13:38:36;14.30;73.70
21108;DHT22;10712;52.944;9.098;2022-09-29T13:49:22;14.30;74.40
21108;DHT22;10712;52.944;9.098;2022-09-29T13:52:29;14.30;74.20
21108;DHT22;10712;52.944;9.098;2022-09-29T13:58:34;14.20;74.40
21108;DHT22;10712;52.944;9.098;2022-09-29T14:01:08;14.20;74.70
21108;DHT22;10712;52.944;9.098;2022-09-29T14:03:38;14.20;75.20
21108;DHT22;10712;52.944;9.098;2022-09-29T14:06:12;14.10;75.50
21108;DHT22;10712;52.944;9.098;2022-09-29T14:08:53;14.10;75.40
21108;DHT22;10712;52.944;9.098;2022-09-29T14:11:51;14.10;75.50
21108;DHT22;10712;52.944;9.098;2022-09-29T14:14:32;14.10;75.40
21108;DHT22;10712;52.944;9.098;2022-09-29T14:17:04;14.10;75.40
21108;DHT22;10712;52.944;9.098;2022-09-29T14:19:49;14.00;75.10
21108;DHT22;10712;52.944;9.098;2022-09-29T14:27:34;13.90;75.10
21108;DHT22;10712;52.944;9.098;2022-09-29T14:32:45;14.00;75.20
21108;DHT22;10712;52.944;9.098;2022-09-29T14:38:23;14.00;75.10
21108;DHT22;10712;52.944;9.098;2022-09-29T14:49:30;14.00;74.80
21108;DHT22;10712;52.944;9.098;2022-09-29T14:52:50;14.00;74.60
21108;DHT22;10712;52.944;9.098;2022-09-29T14:55:37;14.00;74.70
21108;DHT22;10712;52.944;9.098;2022-09-29T15:01:27;14.10;74.80
21108;DHT22;10712;52.944;9.098;2022-09-29T15:04:11;14.10;74.90
21108;DHT22;10712;52.944;9.098;2022-09-29T15:06:48;14.10;75.00
21108;DHT22;10712;52.944;9.098;2022-09-29T15:09:21;14.10;74.80
21108;DHT22;10712;52.944;9.098;2022-09-29T15:11:51;14.10;74.80
21108;DHT22;10712;52.944;9.098;2022-09-29T15:14:32;14.10;74.80
21108;DHT22;10712;52.944;9.098;2022-09-29T15:25:27;14.10;74.90
21108;DHT22;10712;52.944;9.098;2022-09-29T15:30:40;14.00;74.60
21108;DHT22;10712;52.944;9.098;2022-09-29T15:33:15;14.00;74.50
21108;DHT22;10712;52.944;9.098;2022-09-29T15:35:51;14.00;74.60
21108;DHT22;10712;52.944;9.098;2022-09-29T15:40:56;14.00;75.20
21108;DHT22;10712;52.944;9.098;2022-09-29T15:43:26;13.90;75.60
21108;DHT22;10712;52.944;9.098;2022-09-29T15:46:00;13.90;76.00
21108;DHT22;10712;52.944;9.098;2022-09-29T15:48:37;13.90;76.30
21108;DHT22;10712;52.944;9.098;2022-09-29T15:51:04;13.80;76.60
21108;DHT22;10712;52.944;9.098;2022-09-29T15:53:30;13.80;76.60
21108;DHT22;10712;52.944;9.098;2022-09-29T15:55:57;13.80;76.80
21108;DHT22;10712;52.944;9.098;2022-09-29T15:58:42;13.70;77.20
21108;DHT22;10712;52.944;9.098;2022-09-29T16:01:12;13.70;77.50
21108;DHT22;10712;52.944;9.098;2022-09-29T16:03:47;13.70;77.90
21108;DHT22;10712;52.944;9.098;2022-09-29T16:08:56;13.60;78.20
21108;DHT22;10712;52.944;9.098;2022-09-29T16:11:30;13.60;78.40
21108;DHT22;10712;52.944;9.098;2022-09-29T16:14:24;13.50;78.40
21108;DHT22;10712;52.944;9.098;2022-09-29T16:16:53;13.50;78.60
21108;DHT22;10712;52.944;9.098;2022-09-29T16:19:26;13.50;78.80
21108;DHT22;10712;52.944;9.098;2022-09-29T16:21:57;13.40;79.00
21108;DHT22;10712;52.944;9.098;2022-09-29T16:24:34;13.40;79.30
21108;DHT22;10712;52.944;9.098;2022-09-29T16:27:03;13.40;79.50
21108;DHT22;10712;52.944;9.098;2022-09-29T16:29:34;13.30;79.80
21108;DHT22;10712;52.944;9.098;2022-09-29T16:35:36;13.30;80.20
21108;DHT22;10712;52.944;9.098;2022-09-29T16:41:23;13.20;80.80
21108;DHT22;10712;52.944;9.098;2022-09-29T16:44:05;13.20;81.10
21108;DHT22;10712;52.944;9.098;2022-09-29T16:46:47;13.20;81.30
21108;DHT22;10712;52.944;9.098;2022-09-29T16:49:17;13.10;81.60
21108;DHT22;10712;52.944;9.098;2022-09-29T16:51:47;13.10;81.70
21108;DHT22;10712;52.944;9.098;2022-09-29T16:57:24;13.00;82.20
21108;DHT22;10712;52.944;9.098;2022-09-29T16:59:59;12.90;82.40
21108;DHT22;10712;52.944;9.098;2022-09-29T17:02:29;12.80;82.80
21108;DHT22;10712;52.944;9.098;2022-09-29T17:04:55;12.80;83.00
21108;DHT22;10712;52.944;9.098;2022-09-29T17:07:24;12.80;83.20
21108;DHT22;10712;52.944;9.098;2022-09-29T17:09:58;12.70;83.20
21108;DHT22;10712;52.944;9.098;2022-09-29T17:12:29;12.60;83.20
21108;DHT22;10712;52.944;9.098;2022-09-29T17:14:55;12.60;83.60
21108;DHT22;10712;52.944;9.098;2022-09-29T17:17:24;12.50;84.00
21108;DHT22;10712;52.944;9.098;2022-09-29T17:19:52;12.50;84.20
21108;DHT22;10712;52.944;9.098;2022-09-29T17:22:30;12.50;84.40
21108;DHT22;10712;52.944;9.098;2022-09-29T17:24:59;12.50;84.60
21108;DHT22;10712;52.944;9.098;2022-09-29T17:27:26;12.50;84.50
21108;DHT22;10712;52.944;9.098;2022-09-29T17:30:16;12.50;84.60
21108;DHT22;10712;52.944;9.098;2022-09-29T17:32:46;12.50;84.60
21108;DHT22;10712;52.944;9.098;2022-09-29T17:35:13;12.50;84.60
21108;DHT22;10712;52.944;9.098;2022-09-29T17:37:41;12.50;84.50
21108;DHT22;10712;52.944;9.098;2022-09-29T17:40:29;12.40;84.50
21108;DHT22;10712;52.944;9.098;2022-09-29T17:42:59;12.40;84.60
21108;DHT22;10712;52.944;9.098;2022-09-29T17:45:28;12.30;84.50
21108;DHT22;10712;52.944;9.098;2022-09-29T17:47:55;12.30;84.60
21108;DHT22;10712;52.944;9.098;2022-09-29T17:50:40;12.30;84.80
21108;DHT22;10712;52.944;9.098;2022-09-29T17:53:09;12.20;84.90
21108;DHT22;10712;52.944;9.098;2022-09-29T17:55:36;12.20;85.00
21108;DHT22;10712;52.944;9.098;2022-09-29T17:58:03;12.10;85.10
21108;DHT22;10712;52.944;9.098;2022-09-29T18:00:35;12.10;85.40
21108;DHT22;10712;52.944;9.098;2022-09-29T18:03:07;12.10;85.70
21108;DHT22;10712;52.944;9.098;2022-09-29T18:05:36;12.10;85.90
21108;DHT22;10712;52.944;9.098;2022-09-29T18:08:05;12.10;86.10
21108;DHT22;10712;52.944;9.098;2022-09-29T18:10:46;12.10;86.20
21108;DHT22;10712;52.944;9.098;2022-09-29T18:13:15;12.10;86.20
21108;DHT22;10712;52.944;9.098;2022-09-29T18:15:41;12.10;86.20
21108;DHT22;10712;52.944;9.098;2022-09-29T18:18:11;12.20;86.20
21108;DHT22;10712;52.944;9.098;2022-09-29T18:20:43;12.20;86.10
21108;DHT22;10712;52.944;9.098;2022-09-29T18:23:13;12.20;86.10
21108;DHT22;10712;52.944;9.098;2022-09-29T18:25:43;12.20;86.00
21108;DHT22;10712;52.944;9.098;2022-09-29T18:28:13;12.20;86.00
21108;DHT22;10712;52.944;9.098;2022-09-29T18:30:41;12.20;86.00
21108;DHT22;10712;52.944;9.098;2022-09-29T18:33:19;12.20;86.00
21108;DHT22;10712;52.944;9.098;2022-09-29T18:35:52;12.10;86.00
21108;DHT22;10712;52.944;9.098;2022-09-29T18:38:19;12.10;86.30
21108;DHT22;10712;52.944;9.098;2022-09-29T18:40:46;12.10;86.40
21108;DHT22;10712;52.944;9.098;2022-09-29T18:43:13;12.00;86.60
21108;DHT22;10712;52.944;9.098;2022-09-29T18:45:39;12.00;86.80
21108;DHT22;10712;52.944;9.098;2022-09-29T18:48:10;12.00;87.00
21108;DHT22;10712;52.944;9.098;2022-09-29T18:50:46;12.00;87.10
21108;DHT22;10712;52.944;9.098;2022-09-29T18:53:16;11.90;87.10
21108;DHT22;10712;52.944;9.098;2022-09-29T18:55:44;11.90;87.30
21108;DHT22;10712;52.944;9.098;2022-09-29T18:58:15;11.90;87.70
21108;DHT22;10712;52.944;9.098;2022-09-29T19:00:45;11.90;88.00